Terminal Aerodrome Forecast
Issued by NWS

Home | Current Version | Previous Version | Text Only | Print | Product List | Glossary On
Versions: 1 2 3 4 5 6 7 8 9 10 11 12 13
000
FTUS46 KPDT 282300
TAFDLS
TAF
KDLS 282320Z 2900/2924 32015G23KT P6SM FEW250
     FM290400 30011KT P6SM FEW250
     FM290700 29007KT P6SM SKC
     FM291600 31011KT P6SM FEW250
     FM291900 32018G25KT P6SM SCT200=

USA.gov is the U.S. government's official web portal to all federal, state and local government web resources and services.